• Join FlightAware (Why Join?)
  • Login
  • US Flag 
06:01AM EST


 

Airport Tracker/Info


-or-


 

Live Flight TrackerFlight Track Log ✈ UAL1036 ✈ 17-Jun-2013 ✈ SEQM / UIO - KIAH

Flight Track Log - Related Links

Times and Time Zones

All times are in EDT time to prevent confusion due to time zone crossing. See the UAL1036 flight status page for this flight to view local times or setup timezone preferences in your user account.

Time Position Orientation Groundspeed Altitude Reporting Facility
EDT Latitude Longitude Course Direction KTS MPH feet Rate Location/Type
01:49AM 3.0115 -80.1249 330° Northwest  Level FlightAware Approximate
01:50AM 3.1188 -80.1861 330° Northwest  Level FlightAware Approximate
01:51AM 3.2228 -80.2455 330° Northwest  Level FlightAware Approximate
01:52AM 3.3268 -80.3048 330° Northwest  Level FlightAware Approximate
01:53AM 3.4307 -80.3642 330° Northwest  Level FlightAware Approximate
01:54AM 3.5347 -80.4236 330° Northwest  Level FlightAware Approximate
01:55AM 3.6386 -80.4830 330° Northwest  Level FlightAware Approximate
01:56AM 3.7426 -80.5424 330° Northwest  Level FlightAware Approximate
01:57AM 3.8465 -80.6018 330° Northwest  Level FlightAware Approximate
01:58AM 3.9505 -80.6613 330° Northwest  Level FlightAware Approximate
01:59AM 4.0544 -80.7207 330° Northwest  Level FlightAware Approximate
02:00AM 4.1583 -80.7802 330° Northwest  Level FlightAware Approximate
02:01AM 4.2622 -80.8397 330° Northwest  Level FlightAware Approximate
02:02AM 4.3662 -80.8992 330° Northwest  Level FlightAware Approximate
02:03AM 4.4701 -80.9587 330° Northwest  Level FlightAware Approximate
02:04AM 4.5740 -81.0182 330° Northwest  Level FlightAware Approximate
02:05AM 4.6779 -81.0778 330° Northwest  Level FlightAware Approximate
02:06AM 4.7818 -81.1372 330° Northwest  Level FlightAware Approximate
02:07AM 4.8859 -81.1966 330° Northwest  Level FlightAware Approximate
02:08AM 4.9899 -81.2560 330° Northwest  Level FlightAware Approximate
02:09AM 5.0939 -81.3154 330° Northwest  Level FlightAware Approximate
02:10AM 5.1979 -81.3749 330° Northwest  Level FlightAware Approximate
02:11AM 5.3018 -81.4344 330° Northwest  Level FlightAware Approximate
02:12AM 5.4058 -81.4939 330° Northwest  Level FlightAware Approximate
02:13AM 5.5098 -81.5534 330° Northwest  Level FlightAware Approximate
02:14AM 5.6137 -81.6129 330° Northwest  Level FlightAware Approximate
02:15AM 5.7177 -81.6724 330° Northwest  Level FlightAware Approximate
02:16AM 5.8217 -81.7320 330° Northwest  Level FlightAware Approximate
02:17AM 5.9256 -81.7916 330° Northwest  Level FlightAware Approximate
02:18AM 6.0296 -81.8512 330° Northwest  Level FlightAware Approximate
02:19AM 6.1335 -81.9109 330° Northwest  Level FlightAware Approximate
02:20AM 6.2374 -81.9705 330° Northwest  Level FlightAware Approximate
02:21AM 6.3414 -82.0302 330° Northwest  Level FlightAware Approximate
02:22AM 6.4453 -82.0899 330° Northwest  Level FlightAware Approximate
02:23AM 6.5492 -82.1496 330° Northwest  Level FlightAware Approximate
02:24AM 6.6531 -82.2094 330° Northwest  Level FlightAware Approximate
02:25AM 6.7570 -82.2692 330° Northwest  Level FlightAware Approximate
02:26AM 6.8609 -82.3290 330° Northwest  Level FlightAware Approximate
02:27AM 6.9647 -82.3888 330° Northwest  Level FlightAware Approximate
02:28AM 7.0686 -82.4487 330° Northwest  Level FlightAware Approximate
02:29AM 7.1725 -82.5086 330° Northwest  Level FlightAware Approximate
02:30AM 7.2764 -82.5685 330° Northwest  Level FlightAware Approximate
02:31AM 7.3802 -82.6284 330° Northwest  Level FlightAware Approximate
02:32AM 7.4840 -82.6884 330° Northwest  Level FlightAware Approximate
02:33AM 7.5879 -82.7484 330° Northwest  Level FlightAware Approximate
02:34AM 7.6917 -82.8084 330° Northwest  Level FlightAware Approximate
02:35AM 7.7955 -82.8685 330° Northwest  Level FlightAware Approximate
02:36AM 7.8993 -82.9285 330° Northwest  Level FlightAware Approximate
02:37AM 8.0032 -82.9885 330° Northwest  Level FlightAware Approximate
02:38AM 8.1070 -83.0486 330° Northwest  Level FlightAware Approximate
02:39AM 8.2108 -83.1087 330° Northwest  Level FlightAware Approximate
02:40AM 8.3147 -83.1689 330° Northwest  Level FlightAware Approximate
02:41AM 8.4185 -83.2290 330° Northwest  Level FlightAware Approximate
02:42AM 8.5223 -83.2892 330° Northwest  Level FlightAware Approximate
02:43AM 8.6261 -83.3494 330° Northwest  Level FlightAware Approximate
02:44AM 8.7298 -83.4097 330° Northwest  Level FlightAware Approximate
02:45AM 8.8336 -83.4700 330° Northwest  Level FlightAware Approximate
02:46AM 8.9374 -83.5303 330° Northwest  Level FlightAware Approximate
02:46AM 8.8760 -83.3760 330° Northwest 465 535 36,000  Level FlightAware
02:47AM 9.0411 -83.5907 330° Northwest  Level FlightAware Approximate
02:47AM 8.9720 -83.4150 338° Northwest 464 534 36,000  Level FlightAware
02:47AM 9.0710 -83.4590 336° Northwest 469 540 36,000  Level FlightAware
02:48AM 9.1480 -83.5000 332° Northwest 470 541 36,000  Level FlightAware
02:49AM 9.2350 -83.5460 332° Northwest 471 542 36,000  Level FlightAware
02:49AM 9.3120 -83.5870 332° Northwest 473 544 36,000  Level FlightAware
02:50AM 9.4250 -83.6470 332° Northwest 473 544 36,000  Level FlightAware
02:51AM 9.5130 -83.6950 332° Northwest 474 545 36,000  Level FlightAware
02:52AM 9.5920 -83.7370 332° Northwest 475 547 36,000  Level FlightAware
02:52AM 9.6610 -83.7740 332° Northwest 473 544 36,000  Level FlightAware
02:53AM 9.7550 -83.8230 333° Northwest 473 544 36,000  Level FlightAware
02:54AM 9.8410 -83.8700 332° Northwest 472 543 36,000  Level FlightAware
02:55AM 9.9090 -83.9070 332° Northwest 472 543 36,000  Level FlightAware
02:55AM 10.0020 -83.9570 332° Northwest 472 543 36,000  Level FlightAware
02:56AM 10.0770 -83.9970 332° Northwest 472 543 36,000  Level FlightAware
02:57AM 10.1660 -84.0450 332° Northwest 471 542 36,000  Level FlightAware
02:57AM 10.2420 -84.0850 333° Northwest 471 542 36,000  Level FlightAware
02:58AM 10.3270 -84.1320 331° Northwest 471 542 36,000  Level FlightAware
02:59AM 10.4050 -84.1740 332° Northwest 472 543 36,000  Level FlightAware
02:59AM 10.4870 -84.2180 332° Northwest 472 543 36,000  Level FlightAware
03:00AM 10.5760 -84.2660 332° Northwest 473 544 36,000  Level FlightAware
03:01AM 10.6770 -84.3200 332° Northwest 473 544 36,000  Level FlightAware
03:02AM 10.7370 -84.3530 332° Northwest 472 543 36,000  Level FlightAware
03:03AM 10.8450 -84.4110 332° Northwest 473 544 36,000  Level FlightAware
03:03AM 10.9460 -84.4660 332° Northwest 473 544 36,000  Level FlightAware
03:04AM 11.0300 -84.5110 332° Northwest 475 547 36,000  Level FlightAware
03:05AM 11.1080 -84.5540 332° Northwest 473 544 36,000  Level FlightAware
03:06AM 11.1710 -84.5890 331° Northwest 473 544 36,000  Level FlightAware
03:06AM 11.2700 -84.6420 332° Northwest 472 543 36,000  Level FlightAware
03:07AM 11.3480 -84.6850 332° Northwest 471 542 36,000  Level FlightAware
03:08AM 11.4070 -84.7180 331° Northwest 471 542 36,000  Level FlightAware
03:08AM 11.4880 -84.7640 331° Northwest 471 542 36,000  Level FlightAware
03:09AM 11.5460 -84.7970 331° Northwest 471 542 36,000  Level FlightAware
03:10AM 11.6080 -84.8320 331° Northwest 471 542 36,000  Level FlightAware
03:11AM 11.7080 -84.8890 331° Northwest 471 542 36,000  Level FlightAware
03:12AM 11.8050 -84.9440 331° Northwest 471 542 36,000  Level FlightAware
03:12AM 11.8640 -84.9770 331° Northwest 471 542 36,000  Level FlightAware
03:13AM 11.9410 -85.0210 331° Northwest 471 542 36,000  Level FlightAware
03:14AM 12.0000 -85.0540 331° Northwest 471 542 36,000  Level FlightAware
03:14AM 12.0770 -85.0980 331° Northwest 471 542 36,000  Level FlightAware
03:15AM 12.1360 -85.1310 331° Northwest 471 542 36,000  Level FlightAware
03:16AM 12.2130 -85.1750 331° Northwest 471 542 36,000  Level FlightAware
03:16AM 12.2720 -85.2080 331° Northwest 471 542 36,000  Level FlightAware
03:19AM 12.4899 -85.3188 334° Northwest  Level Estimated
03:20AM 12.5971 -85.3733 334° Northwest  Level Estimated
03:21AM 12.7042 -85.4279 334° Northwest  Level Estimated
03:22AM 12.8114 -85.4826 334° Northwest  Level Estimated
03:23AM 12.9185 -85.5372 334° Northwest  Level Estimated
03:24AM 13.0256 -85.5920 334° Northwest  Level Estimated
03:25AM 13.1327 -85.6468 334° Northwest  Level Estimated
03:26AM 13.2398 -85.7016 334° Northwest  Level Estimated
03:27AM 13.3469 -85.7565 333° Northwest  Level Estimated
03:28AM 13.4540 -85.8114 333° Northwest  Level Estimated
03:29AM 13.5611 -85.8664 333° Northwest  Level Estimated
03:30AM 13.6681 -85.9214 333° Northwest  Level Estimated
03:31AM 13.7751 -85.9764 333° Northwest  Level Estimated
03:32AM 13.8822 -86.0316 333° Northwest  Level Estimated
03:33AM 13.9892 -86.0867 333° Northwest  Level Estimated
03:34AM 14.0962 -86.1420 333° Northwest  Level Estimated
03:35AM 14.2032 -86.1973 333° Northwest  Level Estimated
03:36AM 14.3101 -86.2526 333° Northwest  Level Estimated
03:37AM 14.4171 -86.3080 333° Northwest  Level Estimated
03:38AM 14.5240 -86.3634 333° Northwest  Level Estimated
03:39AM 14.6310 -86.4189 333° Northwest  Level Estimated
03:40AM 14.7379 -86.4744 333° Northwest  Level Estimated
03:41AM 14.8448 -86.5300 333° Northwest  Level Estimated
03:42AM 14.9517 -86.5857 333° Northwest  Level Estimated
03:43AM 15.0586 -86.6414 333° Northwest  Level Estimated
03:44AM 15.1655 -86.6972 333° Northwest  Level Estimated
03:45AM 15.2723 -86.7530 333° Northwest  Level Estimated
03:46AM 15.3792 -86.8089 333° Northwest  Level Estimated
03:47AM 15.4860 -86.8648 333° Northwest  Level Estimated
03:48AM 15.5928 -86.9208 333° Northwest  Level Estimated
03:49AM 15.6996 -86.9769 333° Northwest  Level Estimated
03:50AM 15.8064 -87.0330 333° Northwest  Level Estimated
03:51AM 15.9131 -87.0891 333° Northwest  Level Estimated
03:52AM 16.0199 -87.1454 333° Northwest  Level Estimated
03:53AM 16.1266 -87.2017 333° Northwest  Level Estimated
03:54AM 16.2334 -87.2580 333° Northwest  Level Estimated
03:55AM 16.3401 -87.3144 333° Northwest  Level Estimated
03:56AM 16.4468 -87.3709 333° Northwest  Level Estimated
03:57AM 16.5535 -87.4274 333° Northwest  Level Estimated
03:58AM 16.6601 -87.4840 333° Northwest  Level Estimated
03:59AM 16.7668 -87.5407 333° Northwest  Level Estimated
04:00AM 16.8734 -87.5974 333° Northwest  Level Estimated
04:01AM 16.9800 -87.6542 333° Northwest  Level Estimated
04:02AM 17.0867 -87.7110 333° Northwest  Level Estimated
04:03AM 17.1932 -87.7680 333° Northwest  Level Estimated
04:04AM 17.2998 -87.8249 333° Northwest  Level Estimated
04:04AM 17.8650 -88.2050 333° Northwest 459 528 38,000  Level FlightAware
04:04AM 17.9070 -88.2400 322° Northwest 459 528 38,000  Level FlightAware
04:05AM 17.4064 -87.8820 333° Northwest  Level Estimated
04:06AM 18.0140 -88.3280 322° Northwest 459 528 38,000  Level FlightAware
04:06AM 18.0910 -88.3750 330° Northwest 459 528 38,000  Level FlightAware
04:07AM 18.1670 -88.4190 331° Northwest 457 526 38,000  Level FlightAware
04:08AM 18.2520 -88.4670 332° Northwest 457 526 38,000  Level FlightAware
04:08AM 18.3290 -88.5100 332° Northwest 455 524 38,000  Level FlightAware
04:09AM 18.4080 -88.5550 332° Northwest 458 527 38,000  Level FlightAware
04:10AM 18.4800 -88.6080 325° Northwest 456 525 38,000  Level FlightAware
04:10AM 18.5390 -88.6690 316° Northwest 459 528 38,000  Level FlightAware
04:11AM 18.5960 -88.7350 312° West 460 529 38,000  Level FlightAware
04:12AM 18.7010 -88.8570 312° West 460 529 38,000  Level FlightAware
04:13AM 18.7680 -88.9340 313° West 461 531 38,000  Level FlightAware
04:14AM 18.8280 -89.0020 313° West 461 531 38,000  Level FlightAware
04:14AM 18.8820 -89.0640 313° West 460 529 38,000  Level FlightAware
04:15AM 18.9560 -89.1320 319° Northwest 461 531 38,000  Level FlightAware
04:16AM 19.0240 -89.1910 321° Northwest 461 531 38,000  Level FlightAware
04:17AM 19.1190 -89.2730 321° Northwest 461 531 38,000  Level FlightAware
04:17AM 19.1960 -89.3410 320° Northwest 462 532 38,000  Level FlightAware
04:18AM 19.2500 -89.3880 321° Northwest 462 532 38,000  Level FlightAware
04:19AM 19.3470 -89.4730 320° Northwest 463 533 38,000  Level FlightAware
04:20AM 19.4550 -89.5670 321° Northwest 463 533 38,000  Level FlightAware
04:21AM 19.5250 -89.6290 320° Northwest 465 535 38,000  Level FlightAware
04:22AM 19.6010 -89.6960 320° Northwest 465 535 38,000  Level FlightAware
04:22AM 19.6690 -89.7560 320° Northwest 466 536 38,000  Level FlightAware
04:23AM 19.7300 -89.8090 321° Northwest 466 536 38,000  Level FlightAware
04:24AM 19.7920 -89.8650 320° Northwest 466 536 38,000  Level FlightAware
04:24AM 19.8700 -89.9330 321° Northwest 466 536 38,000  Level FlightAware
04:25AM 19.8810 -89.9430 319° Northwest 466 536 38,000  Level FlightAware
04:26AM 19.9540 -90.0010 323° Northwest 468 539 38,000  Level FlightAware
04:26AM 20.0320 -90.0430 333° Northwest 467 537 38,000  Level FlightAware
04:27AM 20.1290 -90.0950 333° Northwest 466 536 38,000  Level FlightAware
04:28AM 20.2080 -90.1380 333° Northwest 465 535 38,000  Level FlightAware
04:28AM 20.3410 -90.2100 333° Northwest 463 533 38,000  Level FlightAware
04:29AM 20.4480 -90.2680 333° Northwest 461 531 38,000  Level FlightAware
04:30AM 20.5200 -90.3070 333° Northwest 460 529 38,000  Level FlightAware
04:31AM 20.6290 -90.3660 333° Northwest 459 528 38,000  Level FlightAware
04:32AM 20.7170 -90.4130 333° Northwest 461 531 38,000  Level FlightAware
04:32AM 20.7890 -90.4530 333° Northwest 461 531 38,000  Level FlightAware
04:33AM 20.8770 -90.5010 333° Northwest 461 531 38,000  Level FlightAware
04:34AM 20.9620 -90.5470 333° Northwest 460 529 38,000  Level FlightAware
04:35AM 21.0350 -90.5870 333° Northwest 460 529 38,000  Level FlightAware
04:35AM 21.0640 -90.6030 333° Northwest 460 529 38,000  Level FlightAware
04:37AM 21.2750 -90.7180 333° Northwest 458 527 38,000  Level FlightAware
04:37AM 21.3090 -90.7370 332° Northwest 457 526 38,000  Level FlightAware
04:38AM 21.3980 -90.7850 333° Northwest 456 525 38,000  Level FlightAware
04:39AM 21.4650 -90.8230 332° Northwest 454 522 38,000  Level FlightAware
04:40AM 21.5810 -90.8860 333° Northwest 454 522 38,000  Level FlightAware
04:40AM 21.6590 -90.9290 333° Northwest 454 522 38,000  Level FlightAware
04:41AM 21.7650 -90.9870 333° Northwest 454 522 38,000  Level FlightAware
04:42AM 21.8440 -91.0310 333° Northwest 454 522 38,000  Level FlightAware
04:43AM 21.9120 -91.0690 333° Northwest 454 522 38,000  Level FlightAware
04:43AM 21.9960 -91.1160 333° Northwest 454 522 38,000  Level FlightAware
04:44AM 22.0770 -91.1600 333° Northwest 454 522 38,000  Level FlightAware
04:45AM 22.2050 -91.2330 332° Northwest 455 524 38,000  Level FlightAware
04:46AM 22.2870 -91.2770 334° Northwest 454 522 38,000  Level FlightAware
04:47AM 22.3620 -91.3190 333° Northwest 454 522 38,000  Level FlightAware
04:47AM 22.4420 -91.3640 333° Northwest 454 522 38,000  Level FlightAware
04:48AM 22.5240 -91.4100 333° Northwest 453 521 38,000  Level FlightAware
04:49AM 22.6010 -91.4530 333° Northwest 453 521 38,000  Level FlightAware
04:50AM 22.6780 -91.4960 333° Northwest 452 520 38,000  Level FlightAware
04:50AM 22.7360 -91.5280 333° Northwest 453 521 38,000  Level FlightAware
04:51AM 22.8330 -91.5830 332° Northwest 453 521 38,000  Level FlightAware
04:52AM 22.9140 -91.6290 332° Northwest 452 520 38,000  Level FlightAware
04:52AM 22.9790 -91.6650 333° Northwest 453 521 38,000  Level FlightAware
04:53AM 23.0520 -91.7060 333° Northwest 453 521 38,000  Level FlightAware
04:54AM 23.1430 -91.7580 332° Northwest 451 519 38,000  Level FlightAware
04:54AM 23.2030 -91.7920 332° Northwest 451 519 38,000  Level FlightAware
04:55AM 23.2960 -91.8440 333° Northwest 450 518 38,000  Level FlightAware
04:56AM 23.3810 -91.8930 332° Northwest 449 517 38,000  Level FlightAware
04:57AM 23.4590 -91.9370 333° Northwest 449 517 38,000  Level FlightAware
04:58AM 23.5750 -92.0030 332° Northwest 450 518 38,000  Level FlightAware
04:59AM 23.7080 -92.0780 333° Northwest 450 518 38,000  Level FlightAware
05:00AM 23.7820 -92.1210 332° Northwest 450 518 38,000  Level FlightAware
05:00AM 23.8760 -92.1740 333° Northwest 452 520 38,000  Level FlightAware
05:01AM 23.9340 -92.2080 332° Northwest 452 520 38,000  Level FlightAware
05:02AM 24.0330 -92.2660 332° Northwest 452 520 38,000  Level FlightAware
05:03AM 24.0940 -92.3010 332° Northwest 452 520 38,000  Level FlightAware
05:03AM 24.1520 -92.3350 332° Northwest 452 520 38,000  Level FlightAware
05:04AM 24.2290 -92.3800 332° Northwest 452 520 38,000  Level FlightAware
05:05AM 24.2840 -92.4120 332° Northwest 452 520 38,000  Level FlightAware
05:06AM 24.3570 -92.4550 332° Northwest 452 520 38,000  Level FlightAware
05:06AM 24.4140 -92.4880 332° Northwest 452 520 38,000  Level FlightAware
05:07AM 24.4910 -92.5330 332° Northwest 452 520 38,000  Level FlightAware
05:08AM 24.5470 -92.5660 332° Northwest 452 520 38,000  Level FlightAware
05:08AM 24.6240 -92.6110 332° Northwest 452 520 38,000  Level FlightAware
05:09AM 24.6780 -92.6420 332° Northwest 452 520 38,000  Level FlightAware
05:10AM 24.7720 -92.6970 332° Northwest 452 520 38,000  Level FlightAware
05:13AM 25.0415 -92.8561 332° Northwest  Level FlightAware Approximate
05:14AM 25.1493 -92.9199 332° Northwest  Level FlightAware Approximate
05:15AM 25.2579 -92.9821 333° Northwest  Level FlightAware Approximate
05:16AM 25.3662 -93.0447 328° Northwest  Level FlightAware Approximate
05:16AM 25.7180 -93.2434 328° Northwest 449 517 38,000  Level FlightAware ADS-B
05:19AM 25.9301 -93.3894 331° Northwest  Level FlightAware Approximate
05:20AM 26.0369 -93.4558 331° Northwest  Level FlightAware Approximate
05:20AM 26.1124 -93.4836 331° Northwest 444 511 38,000  Level FlightAware ADS-B
05:21AM 26.2078 -93.5421 331° Northwest 444 511 38,000  Level FlightAware ADS-B
05:22AM 26.2765 -93.5842 331° Northwest 441 507 38,000  Level FlightAware ADS-B
05:23AM 26.3728 -93.6433 331° Northwest 439 505 38,000  Level FlightAware ADS-B
05:23AM 26.4307 -93.6790 331° Northwest 438 504 38,000  Level FlightAware ADS-B
05:24AM 26.4847 -93.7121 331° Northwest 438 504 38,000  Level FlightAware ADS-B
05:24AM 26.5421 -93.7448 333° Northwest 438 504 38,000  Level FlightAware ADS-B
05:24AM 26.5518 -93.7490 339° North 440 506 38,000  Level FlightAware ADS-B
05:26AM 26.7992 -93.8052 349° North 443 510 38,000  Level FlightAware ADS-B
05:27AM 26.8619 -93.8170 350° North 442 509 38,000  Level FlightAware ADS-B
05:27AM 26.9237 -93.8288 350° North 443 510 38,000  Level FlightAware ADS-B
05:28AM 26.9846 -93.8406 350° North 443 510 38,000  Level FlightAware ADS-B
05:29AM 27.1405 -93.8709 350° North 444 511 38,000  Level FlightAware ADS-B
05:30AM 27.2162 -93.8856 350° North 443 510 38,000  Level FlightAware ADS-B
05:30AM 27.2773 -93.8974 350° North 444 511 38,000  Level FlightAware ADS-B
05:31AM 27.3383 -93.9093 350° North 444 511 38,000  Level FlightAware ADS-B
05:31AM 27.4156 -93.9243 350° North 441 507 38,000  Level FlightAware ADS-B
05:32AM 27.4775 -93.9363 350° North 441 507 38,000  Level FlightAware ADS-B
05:32AM 27.5464 -93.9497 350° North 440 506 38,000  Level FlightAware ADS-B
05:33AM 27.6080 -93.9618 350° North 441 507 38,000  Level FlightAware ADS-B
05:33AM 27.6704 -93.9740 350° North 441 507 38,000  Level FlightAware ADS-B
05:34AM 27.7310 -93.9858 350° North 439 505 38,000  Level FlightAware ADS-B
05:34AM 27.7921 -93.9978 350° North 438 504 38,000  Level FlightAware ADS-B
05:35AM 27.8524 -94.0096 350° North 438 504 38,000  Level FlightAware ADS-B
05:35AM 27.9123 -94.0214 350° North 436 502 38,000  Level FlightAware ADS-B
05:36AM 27.9736 -94.0335 350° North 436 502 38,000  Level FlightAware ADS-B
05:37AM 28.0378 -94.0461 350° North 434 499 38,000  Level FlightAware ADS-B
05:37AM 28.0976 -94.0579 350° North 431 496 38,000  Level FlightAware ADS-B
05:38AM 28.1569 -94.0695 350° North 429 494 38,000  Level FlightAware ADS-B
05:38AM 28.2164 -94.0812 350° North 428 493 38,000  Level FlightAware ADS-B
05:39AM 28.2767 -94.0932 350° North 427 491 38,000  Level FlightAware ADS-B
05:39AM 28.3352 -94.1047 350° North 426 490 38,000  Level FlightAware ADS-B
05:40AM 28.3938 -94.1163 350° North 427 491 38,000 -300 Level FlightAware ADS-B
05:40AM 28.4535 -94.1282 350° North 429 494 37,700 -1,020 Descending FlightAware ADS-B
05:41AM 28.5124 -94.1399 350° North 426 490 37,000 -2,100 Descending FlightAware ADS-B
05:41AM 28.5723 -94.1515 350° North 428 493 35,600 -3,000 Descending FlightAware ADS-B
05:42AM 28.6333 -94.1636 350° North 437 503 33,900 -3,360 Descending FlightAware ADS-B
05:42AM 28.6944 -94.1761 350° North 444 511 32,200 -3,420 Descending FlightAware ADS-B
05:43AM 28.7557 -94.1882 350° North 450 518 30,500 -3,420 Descending FlightAware ADS-B
05:43AM 28.8255 -94.2018 350° North 452 520 28,600 -3,420 Descending FlightAware ADS-B
05:44AM 28.8880 -94.2144 350° North 456 525 26,900 -3,780 Descending FlightAware ADS-B
05:44AM 28.9527 -94.2277 350° North 463 533 24,800 -3,540 Descending FlightAware ADS-B
05:45AM 29.0150 -94.2400 350° North 454 522 23,300 -2,580 Descending FlightAware
05:46AM 29.1050 -94.2580 350° North 442 509 21,200 -2,880 Descending FlightAware
05:46AM 29.2040 -94.2780 350° North 430 495 18,900 -2,340 Descending FlightAware
05:47AM 29.2930 -94.2970 349° North 424 488 17,800 -2,580 Descending FlightAware
05:47AM 29.3139 -94.3003 352° North 407 468 16,500 -4,260 Descending FlightAware ADS-B
05:48AM 29.3691 -94.3115 350° North 400 460 15,200 -2,640 Descending FlightAware ADS-B
05:48AM 29.3807 -94.3143 348° North 399 459 14,900 -3,000 Descending FlightAware ADS-B
05:48AM 29.3882 -94.3168 344° North 399 459 14,700 -2,400 Descending FlightAware ADS-B
05:48AM 29.3983 -94.3215 338° Northwest 396 456 14,500 -2,520 Descending FlightAware ADS-B
05:48AM 29.4083 -94.3273 333° Northwest 392 451 14,200 -2,520 Descending FlightAware ADS-B
05:48AM 29.4176 -94.3338 329° Northwest 391 450 14,000 -2,280 Descending FlightAware ADS-B
05:48AM 29.4312 -94.3457 323° Northwest 388 447 13,600 -2,640 Descending FlightAware ADS-B
05:48AM 29.4391 -94.3543 317° Northwest 386 444 13,300 -2,040 Descending FlightAware ADS-B
05:49AM 29.4758 -94.3981 314° West 377 434 12,400 -1,440 Descending FlightAware ADS-B
05:49AM 29.5122 -94.4413 314° West 375 432 11,900 -900 Descending FlightAware ADS-B
05:50AM 29.5488 -94.4847 314° West 375 432 11,500 -1,020 Descending FlightAware ADS-B
05:50AM 29.5851 -94.5276 314° West 359 413 10,900 -1,140 Descending FlightAware ADS-B
05:51AM 29.6187 -94.5677 314° West 335 386 10,400 -840 Descending FlightAware ADS-B
05:51AM 29.6499 -94.6051 314° West 307 353 10,100 -660 Descending FlightAware ADS-B
05:52AM 29.6648 -94.6230 314° West 298 343 9,900 -1,020 Descending FlightAware ADS-B
05:52AM 29.6792 -94.6402 314° West 294 338 9,600 -1,200 Descending FlightAware ADS-B
05:52AM 29.6932 -94.6568 314° West 289 333 9,300 -1,200 Descending FlightAware ADS-B
05:52AM 29.7077 -94.6738 314° West 285 328 9,000 -1,380 Descending FlightAware ADS-B
05:53AM 29.7219 -94.6906 314° West 284 327 8,600 -1,560 Descending FlightAware ADS-B
05:53AM 29.7355 -94.7068 314° West 283 326 8,200 -1,620 Descending FlightAware ADS-B
05:53AM 29.7491 -94.7232 314° West 284 327 7,800 -1,620 Descending FlightAware ADS-B
05:53AM 29.7631 -94.7399 314° West 282 325 7,400 -1,620 Descending FlightAware ADS-B
05:54AM 29.7767 -94.7561 314° West 282 325 7,000 -1,620 Descending FlightAware ADS-B
05:54AM 29.7904 -94.7724 314° West 281 323 6,600 -1,560 Descending FlightAware ADS-B
05:54AM 29.8040 -94.7887 314° West 282 325 6,200 -1,380 Descending FlightAware ADS-B
05:54AM 29.8176 -94.8050 314° West 281 323 5,900 -1,560 Descending FlightAware ADS-B
05:55AM 29.8288 -94.8183 314° West 281 323 5,500 -1,800 Descending FlightAware ADS-B
05:55AM 29.8426 -94.8351 313° West 282 325 5,100 -1,380 Descending FlightAware ADS-B
05:55AM 29.8566 -94.8518 314° West 281 323 4,800 -1,020 Descending FlightAware ADS-B
05:55AM 29.8700 -94.8678 314° West 275 316 4,600 -840 Descending FlightAware ADS-B
05:56AM 29.8830 -94.8834 314° West 267 307 4,400 -600 Descending FlightAware ADS-B
05:56AM 29.8955 -94.8984 314° West 257 296 4,300 -420 Descending FlightAware ADS-B
05:56AM 29.9077 -94.9131 314° West 248 285 4,200 -600 Descending FlightAware ADS-B
05:56AM 29.9194 -94.9272 314° West 241 277 4,000 -420 Descending FlightAware ADS-B
05:57AM 29.9311 -94.9413 314° West 238 274 4,000  Level FlightAware ADS-B
05:57AM 29.9426 -94.9551 314° West 236 272 4,000  Level FlightAware ADS-B
05:57AM 29.9542 -94.9690 314° West 236 272 4,000  Level FlightAware ADS-B
05:57AM 29.9657 -94.9829 314° West 238 274 4,000  Level FlightAware ADS-B
05:58AM 29.9696 -94.9877 313° West 237 273 4,000  Level FlightAware ADS-B
05:58AM 29.9717 -94.9907 309° West 236 272 4,000  Level FlightAware ADS-B
05:58AM 29.9740 -94.9948 303° West 233 268 4,000  Level FlightAware ADS-B
05:58AM 29.9754 -94.9982 295° West 231 266 4,000  Level FlightAware ADS-B
05:58AM 29.9765 -95.0023 287° West 229 264 4,000  Level FlightAware ADS-B
05:58AM 29.9775 -95.0109 275° West 224 258 4,000  Level FlightAware ADS-B
05:58AM 29.9771 -95.0337 269° West 222 255 4,000  Level FlightAware ADS-B
05:58AM 29.9774 -95.0520 271° West 213 245 4,000 -240 Level FlightAware ADS-B
05:59AM 29.9776 -95.0632 271° West 205 236 3,900 -960 Descending FlightAware ADS-B
05:59AM 29.9775 -95.0873 269° West 206 237 3,500 -1,020 Descending FlightAware ADS-B
05:59AM 29.9775 -95.1038 270° West 202 232 3,300 -960 Descending FlightAware ADS-B
05:59AM 29.9775 -95.1153 270° West 200 230 3,100 -900 Descending FlightAware ADS-B
06:00AM 29.9775 -95.1260 270° West 195 224 3,000 -720 Descending FlightAware ADS-B
06:00AM 29.9778 -95.1413 271° West 189 217 2,800 -1,020 Descending FlightAware ADS-B
06:00AM 29.9779 -95.1502 271° West 188 216 2,600 -1,320 Descending FlightAware ADS-B
06:00AM 29.9779 -95.1602 270° West 186 214 2,400 -1,020 Descending FlightAware ADS-B
06:01AM 29.9776 -95.1808 269° West 175 201 2,100 -960 Descending FlightAware ADS-B
06:01AM 29.9776 -95.2032 270° West 165 190 1,700 -900 Descending FlightAware ADS-B
06:01AM 29.9778 -95.2210 271° West 154 177 1,400 -900 Descending FlightAware ADS-B
06:02AM 29.9778 -95.2307 270° West 141 162 1,200 -720 Descending FlightAware ADS-B
06:02AM 29.9778 -95.2409 270° West 141 162 1,100 -600 Descending FlightAware ADS-B
06:02AM 29.9777 -95.2470 269° West 140 161 1,000 -900 Descending FlightAware ADS-B
06:02AM 29.9777 -95.2515 270° West 139 160 900 -720 Descending FlightAware ADS-B
06:02AM 29.9776 -95.2596 269° West 140 161 800 -720 Descending FlightAware ADS-B
06:02AM 29.9776 -95.2650 270° West 142 163 700 -840 Descending FlightAware ADS-B
06:02AM 29.9776 -95.2709 270° West 144 166 600 -720 Descending FlightAware ADS-B
06:03AM 29.9776 -95.2854 270° West 146 168 400 -840 Descending FlightAware ADS-B
06:03AM 29.9776 -95.2887 270° West 147 169 300 -840 Descending FlightAware ADS-B
06:03AM 29.9776 -95.2972 270° West 148 170 200 -600 Descending FlightAware ADS-B